sensor_id;sensor_type;location;lat;lon;timestamp;P1;durP1;ratioP1;P2;durP2;ratioP2
24567;SDS011;12731;52.182;8.716;2023-01-28T00:02:25;4.35;;;3.95;;
24567;SDS011;12731;52.182;8.716;2023-01-28T00:04:52;5.00;;;4.28;;
24567;SDS011;12731;52.182;8.716;2023-01-28T00:07:19;5.80;;;4.03;;
24567;SDS011;12731;52.182;8.716;2023-01-28T00:09:45;4.72;;;3.83;;
24567;SDS011;12731;52.182;8.716;2023-01-28T00:12:11;5.95;;;3.85;;
24567;SDS011;12731;52.182;8.716;2023-01-28T00:14:38;5.72;;;4.70;;
24567;SDS011;12731;52.182;8.716;2023-01-28T00:17:05;5.80;;;4.07;;
24567;SDS011;12731;52.182;8.716;2023-01-28T00:19:31;5.20;;;4.55;;
24567;SDS011;12731;52.182;8.716;2023-01-28T00:21:57;6.95;;;5.03;;
24567;SDS011;12731;52.182;8.716;2023-01-28T00:24:24;6.10;;;4.72;;
24567;SDS011;12731;52.182;8.716;2023-01-28T00:26:50;5.82;;;4.35;;
24567;SDS011;12731;52.182;8.716;2023-01-28T00:29:17;6.45;;;4.45;;
24567;SDS011;12731;52.182;8.716;2023-01-28T00:31:43;8.23;;;4.60;;
24567;SDS011;12731;52.182;8.716;2023-01-28T00:34:10;6.43;;;4.68;;
24567;SDS011;12731;52.182;8.716;2023-01-28T00:36:36;6.90;;;4.80;;
24567;SDS011;12731;52.182;8.716;2023-01-28T00:39:04;5.18;;;4.10;;
24567;SDS011;12731;52.182;8.716;2023-01-28T00:41:31;6.35;;;3.97;;
24567;SDS011;12731;52.182;8.716;2023-01-28T00:43:57;7.10;;;3.70;;
24567;SDS011;12731;52.182;8.716;2023-01-28T00:46:24;6.28;;;3.60;;
24567;SDS011;12731;52.182;8.716;2023-01-28T00:48:52;4.32;;;3.70;;
24567;SDS011;12731;52.182;8.716;2023-01-28T00:51:19;5.28;;;3.40;;
24567;SDS011;12731;52.182;8.716;2023-01-28T00:53:46;5.32;;;3.38;;
24567;SDS011;12731;52.182;8.716;2023-01-28T00:56:13;3.45;;;3.15;;
24567;SDS011;12731;52.182;8.716;2023-01-28T00:58:41;4.07;;;3.38;;
24567;SDS011;12731;52.182;8.716;2023-01-28T01:03:36;5.13;;;3.72;;
24567;SDS011;12731;52.182;8.716;2023-01-28T01:06:03;5.22;;;3.88;;
24567;SDS011;12731;52.182;8.716;2023-01-28T01:08:30;4.57;;;3.97;;
24567;SDS011;12731;52.182;8.716;2023-01-28T01:11:06;5.72;;;3.97;;
24567;SDS011;12731;52.182;8.716;2023-01-28T01:13:33;5.55;;;3.90;;
24567;SDS011;12731;52.182;8.716;2023-01-28T01:16:00;6.75;;;4.20;;
24567;SDS011;12731;52.182;8.716;2023-01-28T01:18:28;8.80;;;4.93;;
24567;SDS011;12731;52.182;8.716;2023-01-28T01:20:55;5.40;;;4.57;;
24567;SDS011;12731;52.182;8.716;2023-01-28T01:23:27;7.32;;;5.05;;
24567;SDS011;12731;52.182;8.716;2023-01-28T01:25:54;6.28;;;4.50;;
24567;SDS011;12731;52.182;8.716;2023-01-28T01:28:21;6.78;;;4.40;;
24567;SDS011;12731;52.182;8.716;2023-01-28T01:30:48;6.05;;;4.40;;
24567;SDS011;12731;52.182;8.716;2023-01-28T01:33:15;5.03;;;4.50;;
24567;SDS011;12731;52.182;8.716;2023-01-28T01:35:41;6.97;;;4.60;;
24567;SDS011;12731;52.182;8.716;2023-01-28T01:38:08;5.82;;;4.10;;
24567;SDS011;12731;52.182;8.716;2023-01-28T01:40:34;5.10;;;4.10;;
24567;SDS011;12731;52.182;8.716;2023-01-28T01:43:01;5.85;;;4.60;;
24567;SDS011;12731;52.182;8.716;2023-01-28T01:45:27;6.00;;;4.80;;
24567;SDS011;12731;52.182;8.716;2023-01-28T01:47:58;5.78;;;5.20;;
24567;SDS011;12731;52.182;8.716;2023-01-28T01:50:42;6.43;;;4.60;;
24567;SDS011;12731;52.182;8.716;2023-01-28T01:53:17;6.90;;;5.30;;
24567;SDS011;12731;52.182;8.716;2023-01-28T01:55:46;5.97;;;5.32;;
24567;SDS011;12731;52.182;8.716;2023-01-28T01:58:15;6.90;;;5.78;;
24567;SDS011;12731;52.182;8.716;2023-01-28T02:00:44;4.85;;;4.25;;
24567;SDS011;12731;52.182;8.716;2023-01-28T02:03:11;6.25;;;5.10;;
24567;SDS011;12731;52.182;8.716;2023-01-28T02:05:38;7.28;;;5.10;;
24567;SDS011;12731;52.182;8.716;2023-01-28T02:08:05;5.18;;;4.68;;
24567;SDS011;12731;52.182;8.716;2023-01-28T02:10:54;5.70;;;5.10;;
24567;SDS011;12731;52.182;8.716;2023-01-28T02:13:23;6.78;;;4.57;;
24567;SDS011;12731;52.182;8.716;2023-01-28T02:15:52;5.28;;;4.38;;
24567;SDS011;12731;52.182;8.716;2023-01-28T02:18:19;5.28;;;4.72;;
24567;SDS011;12731;52.182;8.716;2023-01-28T02:29:25;6.43;;;4.90;;
24567;SDS011;12731;52.182;8.716;2023-01-28T02:31:53;4.93;;;4.53;;
24567;SDS011;12731;52.182;8.716;2023-01-28T02:34:30;6.75;;;4.60;;
24567;SDS011;12731;52.182;8.716;2023-01-28T02:37:10;6.53;;;5.32;;
24567;SDS011;12731;52.182;8.716;2023-01-28T02:39:41;5.35;;;4.72;;
24567;SDS011;12731;52.182;8.716;2023-01-28T02:42:12;7.45;;;4.97;;
24567;SDS011;12731;52.182;8.716;2023-01-28T02:44:50;6.22;;;4.97;;
24567;SDS011;12731;52.182;8.716;2023-01-28T02:47:17;6.50;;;5.40;;
24567;SDS011;12731;52.182;8.716;2023-01-28T02:50:03;5.90;;;4.97;;
24567;SDS011;12731;52.182;8.716;2023-01-28T02:52:46;6.75;;;5.40;;
24567;SDS011;12731;52.182;8.716;2023-01-28T03:00:49;7.35;;;5.18;;
24567;SDS011;12731;52.182;8.716;2023-01-28T03:03:32;7.40;;;5.20;;
24567;SDS011;12731;52.182;8.716;2023-01-28T03:06:03;5.63;;;5.03;;
24567;SDS011;12731;52.182;8.716;2023-01-28T03:08:37;5.85;;;4.72;;
24567;SDS011;12731;52.182;8.716;2023-01-28T03:11:24;10.40;;;5.13;;
24567;SDS011;12731;52.182;8.716;2023-01-28T03:14:12;6.93;;;5.18;;
24567;SDS011;12731;52.182;8.716;2023-01-28T03:16:58;6.63;;;5.13;;
24567;SDS011;12731;52.182;8.716;2023-01-28T03:19:45;6.70;;;4.35;;
24567;SDS011;12731;52.182;8.716;2023-01-28T03:22:31;5.70;;;4.63;;
24567;SDS011;12731;52.182;8.716;2023-01-28T03:25:18;6.20;;;5.00;;
24567;SDS011;12731;52.182;8.716;2023-01-28T03:28:04;5.68;;;4.65;;
24567;SDS011;12731;52.182;8.716;2023-01-28T03:30:56;6.00;;;5.25;;
24567;SDS011;12731;52.182;8.716;2023-01-28T03:33:47;5.63;;;4.60;;
24567;SDS011;12731;52.182;8.716;2023-01-28T03:36:32;7.88;;;4.63;;
24567;SDS011;12731;52.182;8.716;2023-01-28T03:39:22;5.85;;;4.70;;
24567;SDS011;12731;52.182;8.716;2023-01-28T03:41:54;5.35;;;4.85;;
24567;SDS011;12731;52.182;8.716;2023-01-28T03:44:28;4.45;;;4.05;;
24567;SDS011;12731;52.182;8.716;2023-01-28T03:47:13;6.53;;;4.65;;
24567;SDS011;12731;52.182;8.716;2023-01-28T03:49:40;7.78;;;4.85;;
24567;SDS011;12731;52.182;8.716;2023-01-28T03:52:16;5.18;;;4.68;;
24567;SDS011;12731;52.182;8.716;2023-01-28T03:54:44;6.68;;;4.72;;
24567;SDS011;12731;52.182;8.716;2023-01-28T03:57:14;8.68;;;4.07;;
24567;SDS011;12731;52.182;8.716;2023-01-28T03:59:41;5.20;;;4.00;;
24567;SDS011;12731;52.182;8.716;2023-01-28T04:02:08;6.88;;;4.40;;
24567;SDS011;12731;52.182;8.716;2023-01-28T04:04:39;5.05;;;4.55;;
24567;SDS011;12731;52.182;8.716;2023-01-28T04:07:06;5.30;;;4.80;;
24567;SDS011;12731;52.182;8.716;2023-01-28T04:09:34;6.43;;;4.97;;
24567;SDS011;12731;52.182;8.716;2023-01-28T04:12:03;5.00;;;4.40;;
24567;SDS011;12731;52.182;8.716;2023-01-28T04:14:30;6.18;;;4.97;;
24567;SDS011;12731;52.182;8.716;2023-01-28T04:16:57;5.85;;;5.32;;
24567;SDS011;12731;52.182;8.716;2023-01-28T04:19:24;6.43;;;5.82;;
24567;SDS011;12731;52.182;8.716;2023-01-28T04:21:50;6.25;;;5.13;;
24567;SDS011;12731;52.182;8.716;2023-01-28T04:24:20;6.60;;;5.80;;
24567;SDS011;12731;52.182;8.716;2023-01-28T04:26:47;5.75;;;5.07;;
24567;SDS011;12731;52.182;8.716;2023-01-28T04:29:14;6.57;;;4.80;;
24567;SDS011;12731;52.182;8.716;2023-01-28T04:31:40;7.13;;;4.93;;
24567;SDS011;12731;52.182;8.716;2023-01-28T04:34:07;6.00;;;5.40;;
24567;SDS011;12731;52.182;8.716;2023-01-28T04:36:34;7.97;;;4.68;;
24567;SDS011;12731;52.182;8.716;2023-01-28T04:39:01;5.88;;;4.63;;
24567;SDS011;12731;52.182;8.716;2023-01-28T04:41:27;6.88;;;5.05;;
24567;SDS011;12731;52.182;8.716;2023-01-28T04:43:54;6.05;;;4.80;;
24567;SDS011;12731;52.182;8.716;2023-01-28T04:46:21;7.97;;;4.63;;
24567;SDS011;12731;52.182;8.716;2023-01-28T04:48:47;6.60;;;4.32;;
24567;SDS011;12731;52.182;8.716;2023-01-28T04:51:14;6.75;;;4.60;;
24567;SDS011;12731;52.182;8.716;2023-01-28T04:53:40;6.85;;;4.50;;
24567;SDS011;12731;52.182;8.716;2023-01-28T04:56:06;5.47;;;4.35;;
24567;SDS011;12731;52.182;8.716;2023-01-28T04:58:33;6.80;;;4.45;;
24567;SDS011;12731;52.182;8.716;2023-01-28T05:00:59;7.07;;;4.70;;
24567;SDS011;12731;52.182;8.716;2023-01-28T05:03:26;9.32;;;4.78;;
24567;SDS011;12731;52.182;8.716;2023-01-28T05:05:52;7.60;;;4.75;;
24567;SDS011;12731;52.182;8.716;2023-01-28T05:08:19;8.57;;;4.82;;
24567;SDS011;12731;52.182;8.716;2023-01-28T05:10:45;6.75;;;4.40;;
24567;SDS011;12731;52.182;8.716;2023-01-28T05:13:12;5.68;;;4.88;;
24567;SDS011;12731;52.182;8.716;2023-01-28T05:15:38;6.60;;;4.75;;
24567;SDS011;12731;52.182;8.716;2023-01-28T05:18:05;6.90;;;5.20;;
24567;SDS011;12731;52.182;8.716;2023-01-28T05:20:31;10.73;;;4.65;;
24567;SDS011;12731;52.182;8.716;2023-01-28T05:22:58;7.43;;;4.20;;
24567;SDS011;12731;52.182;8.716;2023-01-28T05:25:24;7.95;;;4.95;;
24567;SDS011;12731;52.182;8.716;2023-01-28T05:27:53;9.68;;;4.93;;
24567;SDS011;12731;52.182;8.716;2023-01-28T05:30:19;5.70;;;4.65;;
24567;SDS011;12731;52.182;8.716;2023-01-28T05:32:46;6.43;;;4.35;;
24567;SDS011;12731;52.182;8.716;2023-01-28T05:35:12;4.72;;;4.25;;
24567;SDS011;12731;52.182;8.716;2023-01-28T05:37:39;8.35;;;4.20;;
24567;SDS011;12731;52.182;8.716;2023-01-28T05:40:06;5.95;;;4.13;;
24567;SDS011;12731;52.182;8.716;2023-01-28T05:42:32;7.35;;;4.35;;
24567;SDS011;12731;52.182;8.716;2023-01-28T05:44:59;6.93;;;4.55;;
24567;SDS011;12731;52.182;8.716;2023-01-28T05:47:26;6.10;;;4.35;;
24567;SDS011;12731;52.182;8.716;2023-01-28T05:49:52;5.10;;;4.20;;
24567;SDS011;12731;52.182;8.716;2023-01-28T05:52:19;4.90;;;4.40;;
24567;SDS011;12731;52.182;8.716;2023-01-28T05:54:45;5.00;;;4.13;;
24567;SDS011;12731;52.182;8.716;2023-01-28T05:57:11;5.05;;;4.43;;
24567;SDS011;12731;52.182;8.716;2023-01-28T05:59:38;6.30;;;4.20;;
24567;SDS011;12731;52.182;8.716;2023-01-28T06:02:04;5.00;;;4.00;;
24567;SDS011;12731;52.182;8.716;2023-01-28T06:04:31;6.35;;;3.85;;
24567;SDS011;12731;52.182;8.716;2023-01-28T06:06:57;5.28;;;4.15;;
24567;SDS011;12731;52.182;8.716;2023-01-28T06:09:24;5.93;;;4.18;;
24567;SDS011;12731;52.182;8.716;2023-01-28T06:11:50;5.85;;;4.10;;
24567;SDS011;12731;52.182;8.716;2023-01-28T06:14:17;5.57;;;4.45;;
24567;SDS011;12731;52.182;8.716;2023-01-28T06:16:43;4.70;;;3.83;;
24567;SDS011;12731;52.182;8.716;2023-01-28T06:19:09;6.40;;;4.10;;
24567;SDS011;12731;52.182;8.716;2023-01-28T06:21:36;8.73;;;4.00;;
24567;SDS011;12731;52.182;8.716;2023-01-28T06:24:02;5.95;;;3.92;;
24567;SDS011;12731;52.182;8.716;2023-01-28T06:26:29;7.35;;;4.53;;
24567;SDS011;12731;52.182;8.716;2023-01-28T06:28:56;5.18;;;4.45;;
24567;SDS011;12731;52.182;8.716;2023-01-28T06:31:22;5.43;;;4.40;;
24567;SDS011;12731;52.182;8.716;2023-01-28T06:33:49;5.55;;;4.07;;
24567;SDS011;12731;52.182;8.716;2023-01-28T06:36:15;5.20;;;4.65;;
24567;SDS011;12731;52.182;8.716;2023-01-28T06:38:41;5.38;;;4.60;;
24567;SDS011;12731;52.182;8.716;2023-01-28T06:41:08;9.50;;;4.70;;
24567;SDS011;12731;52.182;8.716;2023-01-28T06:43:34;5.40;;;4.47;;
24567;SDS011;12731;52.182;8.716;2023-01-28T06:46:01;6.15;;;4.90;;
24567;SDS011;12731;52.182;8.716;2023-01-28T06:48:27;5.15;;;4.55;;
24567;SDS011;12731;52.182;8.716;2023-01-28T06:50:54;6.88;;;4.57;;
24567;SDS011;12731;52.182;8.716;2023-01-28T06:53:20;6.40;;;4.90;;
24567;SDS011;12731;52.182;8.716;2023-01-28T06:55:47;5.55;;;4.57;;
24567;SDS011;12731;52.182;8.716;2023-01-28T06:58:13;7.65;;;5.28;;
24567;SDS011;12731;52.182;8.716;2023-01-28T07:00:40;8.40;;;5.05;;
24567;SDS011;12731;52.182;8.716;2023-01-28T07:03:06;5.47;;;4.97;;
24567;SDS011;12731;52.182;8.716;2023-01-28T07:05:33;5.07;;;4.55;;
24567;SDS011;12731;52.182;8.716;2023-01-28T07:07:59;7.72;;;5.45;;
24567;SDS011;12731;52.182;8.716;2023-01-28T07:10:27;8.30;;;5.75;;
24567;SDS011;12731;52.182;8.716;2023-01-28T07:12:54;7.93;;;5.72;;
24567;SDS011;12731;52.182;8.716;2023-01-28T07:15:21;7.00;;;5.93;;
24567;SDS011;12731;52.182;8.716;2023-01-28T07:17:47;7.85;;;6.10;;
24567;SDS011;12731;52.182;8.716;2023-01-28T07:20:14;8.82;;;5.78;;
24567;SDS011;12731;52.182;8.716;2023-01-28T07:22:41;9.27;;;5.78;;
24567;SDS011;12731;52.182;8.716;2023-01-28T07:25:09;6.80;;;5.70;;
24567;SDS011;12731;52.182;8.716;2023-01-28T07:27:37;7.13;;;5.50;;
24567;SDS011;12731;52.182;8.716;2023-01-28T07:30:03;5.97;;;5.35;;
24567;SDS011;12731;52.182;8.716;2023-01-28T07:32:30;7.68;;;5.45;;
24567;SDS011;12731;52.182;8.716;2023-01-28T07:34:57;5.65;;;5.10;;
24567;SDS011;12731;52.182;8.716;2023-01-28T07:37:23;5.28;;;4.72;;
24567;SDS011;12731;52.182;8.716;2023-01-28T07:39:50;6.72;;;4.75;;
24567;SDS011;12731;52.182;8.716;2023-01-28T07:42:17;6.82;;;5.03;;
24567;SDS011;12731;52.182;8.716;2023-01-28T07:44:43;5.32;;;4.85;;
24567;SDS011;12731;52.182;8.716;2023-01-28T07:47:10;6.30;;;5.30;;
24567;SDS011;12731;52.182;8.716;2023-01-28T07:49:37;7.20;;;5.75;;
24567;SDS011;12731;52.182;8.716;2023-01-28T07:52:05;6.28;;;5.30;;
24567;SDS011;12731;52.182;8.716;2023-01-28T07:54:32;6.38;;;5.50;;
24567;SDS011;12731;52.182;8.716;2023-01-28T07:56:58;8.38;;;5.00;;
24567;SDS011;12731;52.182;8.716;2023-01-28T07:59:25;5.82;;;5.20;;
24567;SDS011;12731;52.182;8.716;2023-01-28T08:01:51;6.85;;;5.70;;
24567;SDS011;12731;52.182;8.716;2023-01-28T08:04:20;6.10;;;5.15;;
24567;SDS011;12731;52.182;8.716;2023-01-28T08:06:47;9.63;;;5.15;;
24567;SDS011;12731;52.182;8.716;2023-01-28T08:09:13;8.32;;;5.75;;
24567;SDS011;12731;52.182;8.716;2023-01-28T08:11:39;6.85;;;6.15;;
24567;SDS011;12731;52.182;8.716;2023-01-28T08:14:06;8.00;;;6.07;;
24567;SDS011;12731;52.182;8.716;2023-01-28T08:16:32;6.82;;;5.90;;
24567;SDS011;12731;52.182;8.716;2023-01-28T08:18:59;6.40;;;5.22;;
24567;SDS011;12731;52.182;8.716;2023-01-28T08:21:25;5.18;;;4.50;;
24567;SDS011;12731;52.182;8.716;2023-01-28T08:23:52;8.55;;;5.30;;
24567;SDS011;12731;52.182;8.716;2023-01-28T08:26:19;6.70;;;5.38;;
24567;SDS011;12731;52.182;8.716;2023-01-28T08:28:46;6.03;;;4.80;;
24567;SDS011;12731;52.182;8.716;2023-01-28T08:31:15;8.27;;;6.45;;
24567;SDS011;12731;52.182;8.716;2023-01-28T08:33:41;6.35;;;5.75;;
24567;SDS011;12731;52.182;8.716;2023-01-28T08:36:08;6.82;;;6.13;;
24567;SDS011;12731;52.182;8.716;2023-01-28T08:38:34;6.57;;;5.28;;
24567;SDS011;12731;52.182;8.716;2023-01-28T08:41:01;9.55;;;6.45;;
24567;SDS011;12731;52.182;8.716;2023-01-28T08:43:27;7.57;;;6.00;;
24567;SDS011;12731;52.182;8.716;2023-01-28T08:45:54;8.15;;;6.15;;
24567;SDS011;12731;52.182;8.716;2023-01-28T08:48:20;8.38;;;7.00;;
24567;SDS011;12731;52.182;8.716;2023-01-28T08:50:47;11.35;;;6.93;;
24567;SDS011;12731;52.182;8.716;2023-01-28T08:53:15;7.43;;;6.72;;
24567;SDS011;12731;52.182;8.716;2023-01-28T08:55:43;10.68;;;7.90;;
24567;SDS011;12731;52.182;8.716;2023-01-28T08:58:11;8.77;;;6.43;;
24567;SDS011;12731;52.182;8.716;2023-01-28T09:00:39;7.93;;;6.53;;
24567;SDS011;12731;52.182;8.716;2023-01-28T09:03:06;8.05;;;7.25;;
24567;SDS011;12731;52.182;8.716;2023-01-28T09:05:33;11.48;;;7.68;;
24567;SDS011;12731;52.182;8.716;2023-01-28T09:08:01;8.23;;;6.72;;
24567;SDS011;12731;52.182;8.716;2023-01-28T09:10:28;7.38;;;6.50;;
24567;SDS011;12731;52.182;8.716;2023-01-28T09:12:55;9.10;;;6.43;;
24567;SDS011;12731;52.182;8.716;2023-01-28T09:15:21;9.88;;;6.93;;
24567;SDS011;12731;52.182;8.716;2023-01-28T09:17:47;7.85;;;7.05;;
24567;SDS011;12731;52.182;8.716;2023-01-28T09:20:14;9.05;;;7.10;;
24567;SDS011;12731;52.182;8.716;2023-01-28T09:22:41;8.60;;;7.35;;
24567;SDS011;12731;52.182;8.716;2023-01-28T09:25:08;9.10;;;7.25;;
24567;SDS011;12731;52.182;8.716;2023-01-28T09:27:34;10.75;;;7.38;;
24567;SDS011;12731;52.182;8.716;2023-01-28T09:30:01;9.65;;;7.10;;
24567;SDS011;12731;52.182;8.716;2023-01-28T09:32:27;7.72;;;6.40;;
24567;SDS011;12731;52.182;8.716;2023-01-28T09:34:54;8.35;;;7.55;;
24567;SDS011;12731;52.182;8.716;2023-01-28T09:37:20;8.82;;;7.40;;
24567;SDS011;12731;52.182;8.716;2023-01-28T09:39:47;8.00;;;6.57;;
24567;SDS011;12731;52.182;8.716;2023-01-28T09:42:26;7.10;;;6.10;;
24567;SDS011;12731;52.182;8.716;2023-01-28T09:45:12;8.77;;;6.70;;
24567;SDS011;12731;52.182;8.716;2023-01-28T09:47:51;7.63;;;6.82;;
24567;SDS011;12731;52.182;8.716;2023-01-28T09:50:25;8.45;;;6.72;;
24567;SDS011;12731;52.182;8.716;2023-01-28T09:52:56;9.02;;;6.63;;
24567;SDS011;12731;52.182;8.716;2023-01-28T09:55:32;10.80;;;7.63;;
24567;SDS011;12731;52.182;8.716;2023-01-28T09:58:03;22.15;;;14.55;;
24567;SDS011;12731;52.182;8.716;2023-01-28T10:03:13;11.07;;;7.00;;
24567;SDS011;12731;52.182;8.716;2023-01-28T10:05:54;10.18;;;7.20;;
24567;SDS011;12731;52.182;8.716;2023-01-28T10:11:30;9.77;;;7.20;;
24567;SDS011;12731;52.182;8.716;2023-01-28T10:14:05;12.10;;;7.82;;
24567;SDS011;12731;52.182;8.716;2023-01-28T10:19:18;11.02;;;6.90;;
24567;SDS011;12731;52.182;8.716;2023-01-28T10:21:51;15.18;;;9.07;;
24567;SDS011;12731;52.182;8.716;2023-01-28T10:24:30;18.20;;;10.60;;
24567;SDS011;12731;52.182;8.716;2023-01-28T10:27:02;12.50;;;8.40;;
24567;SDS011;12731;52.182;8.716;2023-01-28T10:29:37;6.80;;;6.10;;
24567;SDS011;12731;52.182;8.716;2023-01-28T10:32:08;23.80;;;12.95;;
24567;SDS011;12731;52.182;8.716;2023-01-28T10:34:41;8.52;;;5.95;;
24567;SDS011;12731;52.182;8.716;2023-01-28T10:37:14;7.40;;;5.72;;
24567;SDS011;12731;52.182;8.716;2023-01-28T10:39:41;12.80;;;8.05;;
24567;SDS011;12731;52.182;8.716;2023-01-28T10:44:59;7.75;;;6.38;;
24567;SDS011;12731;52.182;8.716;2023-01-28T10:50:17;12.95;;;10.40;;
24567;SDS011;12731;52.182;8.716;2023-01-28T10:52:54;9.77;;;8.75;;
24567;SDS011;12731;52.182;8.716;2023-01-28T10:55:29;7.68;;;6.80;;
24567;SDS011;12731;52.182;8.716;2023-01-28T10:57:57;8.32;;;6.72;;
24567;SDS011;12731;52.182;8.716;2023-01-28T11:02:56;10.48;;;7.90;;
24567;SDS011;12731;52.182;8.716;2023-01-28T11:05:23;8.77;;;7.88;;
24567;SDS011;12731;52.182;8.716;2023-01-28T11:10:39;8.30;;;7.30;;
24567;SDS011;12731;52.182;8.716;2023-01-28T11:15:50;8.90;;;7.40;;
24567;SDS011;12731;52.182;8.716;2023-01-28T11:18:27;8.27;;;7.47;;
24567;SDS011;12731;52.182;8.716;2023-01-28T11:21:12;10.70;;;7.00;;
24567;SDS011;12731;52.182;8.716;2023-01-28T11:23:57;8.43;;;7.55;;
24567;SDS011;12731;52.182;8.716;2023-01-28T11:26:27;8.80;;;7.13;;
24567;SDS011;12731;52.182;8.716;2023-01-28T11:28:57;10.15;;;7.43;;
24567;SDS011;12731;52.182;8.716;2023-01-28T11:31:23;7.93;;;7.13;;
24567;SDS011;12731;52.182;8.716;2023-01-28T11:34:01;10.85;;;8.38;;
24567;SDS011;12731;52.182;8.716;2023-01-28T11:36:31;18.25;;;10.48;;
24567;SDS011;12731;52.182;8.716;2023-01-28T11:39:19;9.20;;;7.40;;
24567;SDS011;12731;52.182;8.716;2023-01-28T11:41:47;9.20;;;7.15;;
24567;SDS011;12731;52.182;8.716;2023-01-28T11:44:15;8.65;;;7.57;;
24567;SDS011;12731;52.182;8.716;2023-01-28T11:49:38;8.98;;;7.20;;
24567;SDS011;12731;52.182;8.716;2023-01-28T11:54:53;9.25;;;7.25;;
24567;SDS011;12731;52.182;8.716;2023-01-28T11:57:42;7.85;;;6.47;;
24567;SDS011;12731;52.182;8.716;2023-01-28T12:06:09;8.50;;;7.65;;
24567;SDS011;12731;52.182;8.716;2023-01-28T12:08:58;8.60;;;7.35;;
24567;SDS011;12731;52.182;8.716;2023-01-28T12:22:58;9.30;;;7.97;;
24567;SDS011;12731;52.182;8.716;2023-01-28T13:10:45;7.22;;;6.40;;
24567;SDS011;12731;52.182;8.716;2023-01-28T13:13:24;8.57;;;7.30;;
24567;SDS011;12731;52.182;8.716;2023-01-28T13:15:59;8.60;;;7.00;;
24567;SDS011;12731;52.182;8.716;2023-01-28T13:21:06;8.30;;;7.47;;
24567;SDS011;12731;52.182;8.716;2023-01-28T13:23:45;8.95;;;7.28;;
24567;SDS011;12731;52.182;8.716;2023-01-28T13:28:50;7.40;;;6.70;;
24567;SDS011;12731;52.182;8.716;2023-01-28T13:31:18;7.68;;;6.88;;
24567;SDS011;12731;52.182;8.716;2023-01-28T13:41:38;8.80;;;7.05;;
24567;SDS011;12731;52.182;8.716;2023-01-28T13:49:42;8.70;;;6.90;;
24567;SDS011;12731;52.182;8.716;2023-01-28T13:52:25;8.43;;;7.15;;
24567;SDS011;12731;52.182;8.716;2023-01-28T13:54:55;8.50;;;7.57;;
24567;SDS011;12731;52.182;8.716;2023-01-28T14:03:01;10.60;;;8.65;;
24567;SDS011;12731;52.182;8.716;2023-01-28T14:11:24;9.07;;;8.10;;
24567;SDS011;12731;52.182;8.716;2023-01-28T14:16:47;8.43;;;7.60;;
24567;SDS011;12731;52.182;8.716;2023-01-28T14:19:18;9.52;;;8.15;;
24567;SDS011;12731;52.182;8.716;2023-01-28T14:21:52;13.35;;;10.65;;
24567;SDS011;12731;52.182;8.716;2023-01-28T14:24:19;9.77;;;8.63;;
24567;SDS011;12731;52.182;8.716;2023-01-28T14:26:52;9.02;;;7.90;;
24567;SDS011;12731;52.182;8.716;2023-01-28T14:34:36;9.25;;;8.25;;
24567;SDS011;12731;52.182;8.716;2023-01-28T14:37:07;10.48;;;8.77;;
24567;SDS011;12731;52.182;8.716;2023-01-28T14:39:40;11.15;;;8.65;;
24567;SDS011;12731;52.182;8.716;2023-01-28T14:42:13;11.68;;;8.40;;
24567;SDS011;12731;52.182;8.716;2023-01-28T14:44:44;9.35;;;8.32;;
24567;SDS011;12731;52.182;8.716;2023-01-28T14:52:17;10.10;;;9.10;;
24567;SDS011;12731;52.182;8.716;2023-01-28T14:55:08;10.43;;;8.52;;
24567;SDS011;12731;52.182;8.716;2023-01-28T15:00:16;11.75;;;9.82;;
24567;SDS011;12731;52.182;8.716;2023-01-28T15:02:52;12.30;;;10.55;;
24567;SDS011;12731;52.182;8.716;2023-01-28T15:05:21;12.35;;;10.63;;
24567;SDS011;12731;52.182;8.716;2023-01-28T15:07:49;14.45;;;10.82;;
24567;SDS011;12731;52.182;8.716;2023-01-28T15:12:53;14.38;;;10.82;;
24567;SDS011;12731;52.182;8.716;2023-01-28T15:15:24;17.60;;;12.10;;
24567;SDS011;12731;52.182;8.716;2023-01-28T15:17:56;21.58;;;13.32;;
24567;SDS011;12731;52.182;8.716;2023-01-28T15:20:27;10.93;;;9.75;;
24567;SDS011;12731;52.182;8.716;2023-01-28T15:22:53;24.58;;;17.63;;
24567;SDS011;12731;52.182;8.716;2023-01-28T15:25:20;13.80;;;11.30;;
24567;SDS011;12731;52.182;8.716;2023-01-28T15:27:49;19.25;;;13.48;;
24567;SDS011;12731;52.182;8.716;2023-01-28T15:30:24;18.75;;;14.10;;
24567;SDS011;12731;52.182;8.716;2023-01-28T15:33:13;22.38;;;15.02;;
24567;SDS011;12731;52.182;8.716;2023-01-28T15:35:49;16.80;;;12.88;;
24567;SDS011;12731;52.182;8.716;2023-01-28T15:38:16;56.13;;;29.08;;
24567;SDS011;12731;52.182;8.716;2023-01-28T15:40:44;30.85;;;16.88;;
24567;SDS011;12731;52.182;8.716;2023-01-28T15:43:29;31.23;;;18.10;;
24567;SDS011;12731;52.182;8.716;2023-01-28T15:45:57;53.40;;;27.73;;
24567;SDS011;12731;52.182;8.716;2023-01-28T15:48:24;31.83;;;18.23;;
24567;SDS011;12731;52.182;8.716;2023-01-28T15:51:05;34.00;;;20.05;;
24567;SDS011;12731;52.182;8.716;2023-01-28T15:53:34;44.88;;;29.83;;
24567;SDS011;12731;52.182;8.716;2023-01-28T15:56:06;34.22;;;26.23;;
24567;SDS011;12731;52.182;8.716;2023-01-28T15:58:33;24.05;;;19.17;;
24567;SDS011;12731;52.182;8.716;2023-01-28T16:01:12;19.52;;;15.48;;
24567;SDS011;12731;52.182;8.716;2023-01-28T16:03:41;15.98;;;13.50;;
24567;SDS011;12731;52.182;8.716;2023-01-28T16:06:19;18.77;;;13.93;;
24567;SDS011;12731;52.182;8.716;2023-01-28T16:08:56;19.35;;;13.85;;
24567;SDS011;12731;52.182;8.716;2023-01-28T16:11:28;22.00;;;15.93;;
24567;SDS011;12731;52.182;8.716;2023-01-28T16:14:43;26.17;;;17.13;;
24567;SDS011;12731;52.182;8.716;2023-01-28T16:17:07;26.48;;;16.83;;
24567;SDS011;12731;52.182;8.716;2023-01-28T16:19:39;26.50;;;17.52;;
24567;SDS011;12731;52.182;8.716;2023-01-28T16:24:34;20.33;;;15.27;;
24567;SDS011;12731;52.182;8.716;2023-01-28T16:27:04;21.02;;;15.88;;
24567;SDS011;12731;52.182;8.716;2023-01-28T16:29:32;22.65;;;16.35;;
24567;SDS011;12731;52.182;8.716;2023-01-28T16:31:59;22.13;;;16.98;;
24567;SDS011;12731;52.182;8.716;2023-01-28T16:34:26;19.08;;;15.90;;
24567;SDS011;12731;52.182;8.716;2023-01-28T16:36:55;20.02;;;15.13;;
24567;SDS011;12731;52.182;8.716;2023-01-28T16:39:23;23.08;;;15.80;;
24567;SDS011;12731;52.182;8.716;2023-01-28T16:41:50;19.92;;;15.13;;
24567;SDS011;12731;52.182;8.716;2023-01-28T16:44:16;18.83;;;14.60;;
24567;SDS011;12731;52.182;8.716;2023-01-28T16:46:43;18.65;;;15.00;;
24567;SDS011;12731;52.182;8.716;2023-01-28T16:49:10;17.85;;;14.90;;
24567;SDS011;12731;52.182;8.716;2023-01-28T16:51:37;20.08;;;16.02;;
24567;SDS011;12731;52.182;8.716;2023-01-28T16:54:06;22.35;;;16.40;;
24567;SDS011;12731;52.182;8.716;2023-01-28T16:56:32;22.70;;;14.80;;
24567;SDS011;12731;52.182;8.716;2023-01-28T16:59:10;18.15;;;14.40;;
24567;SDS011;12731;52.182;8.716;2023-01-28T17:01:37;19.48;;;14.13;;
24567;SDS011;12731;52.182;8.716;2023-01-28T17:04:04;21.42;;;13.95;;
24567;SDS011;12731;52.182;8.716;2023-01-28T17:06:37;19.75;;;14.30;;
24567;SDS011;12731;52.182;8.716;2023-01-28T17:09:07;16.73;;;13.40;;
24567;SDS011;12731;52.182;8.716;2023-01-28T17:11:33;21.30;;;14.27;;
24567;SDS011;12731;52.182;8.716;2023-01-28T17:14:00;18.45;;;13.77;;
24567;SDS011;12731;52.182;8.716;2023-01-28T17:16:27;18.45;;;14.40;;
24567;SDS011;12731;52.182;8.716;2023-01-28T17:18:53;22.55;;;14.45;;
24567;SDS011;12731;52.182;8.716;2023-01-28T17:21:20;19.15;;;13.70;;
24567;SDS011;12731;52.182;8.716;2023-01-28T17:23:47;21.30;;;14.98;;
24567;SDS011;12731;52.182;8.716;2023-01-28T17:26:14;20.23;;;13.90;;
24567;SDS011;12731;52.182;8.716;2023-01-28T17:28:40;18.00;;;14.10;;
24567;SDS011;12731;52.182;8.716;2023-01-28T17:31:08;20.27;;;15.43;;
24567;SDS011;12731;52.182;8.716;2023-01-28T17:33:39;19.42;;;14.38;;
24567;SDS011;12731;52.182;8.716;2023-01-28T17:36:06;20.00;;;14.88;;